Аэропорт: Храброво. Калининград

ICAO: UMKK

METAR:
2019-07-23 18:30:00
UMKK 231830Z 30003MPS 200V320 CAVOK 17/15 Q1018 R24/CLRD60 NOSIG RMK QFE763/1017
METAR:
2019-07-23 16:59:00
TAF UMKK 231659Z 2318/2418 30003G08MPS 9999 SCT011 TEMPO 2321/2404 VRB01MPS 3100 BR BKN006 BKN011 BECMG 2404/2406 36003G08MPS TEMPO 2409/2418 02006MPS